עמוד ראשי
METAR-TAF:

METAR-TAF

שדות תעופה :

Guaymas, מקסיקו

קו רוחב: 27-58N, קו אורך: 110-56W, גובה: 27מטר

תצפית מזג אוויר נוכחית

הדו"ח נערך לפני 6 שעות ו 25דקות, בשעה 01:42 UTC
רוח 9קשר מכיוון מערב/דרום-מערב
טמפרטורת 32 צלסיוס
לחות 63%
לחץ 1004 hPa
ראות: 16.1קילומטר
שמיים נקיים

METAR: MMGM 160142Z 24009KT 10SM SKC 32/24 A2966

זמן: 01:07 (08:07 UTC)

תחזית

הדו"ח נערך לפני 3 שעות ו 5דקות, בשעה 05:02 UTC
תחזית בתוקף מ 16 ב 06 UTC עד 17 ב 06 UTC
רוח 10קשר מכיוון דרום
ראות: 8.0קילומטר
עננים בינוניים בגובה 2000רגל
אובך
מ 16 ב 1530UTC
רוח 10קשר מכיוון דרום/דרום-מזרח
ראות: 10קילומטר
שמיים נקיים
יעשה מ
17 ב 02 UTC עד 17 ב 03 UTC
רוח 5קשר מכיוון דרום/דרום-מערב

TAF: MMGM 160502Z 1606/1706 17010KT 5SM HZ BKN020 FM161530 15010KT P6SM SKC BECMG 1702/1703 20005KT

תצפיות ותחזיות מזג אוויר לגבי יותר מ- 4,000 שדות תעופה ברחבי העולם. דוחות METAR ו- TAF.

התחנות הזמינות מסומנות בנקודות צהובות ואדומות על גבי המפה.

העבר את העכבר לנקודה הצבעונית על מנת לראות את שם התחנה.

לאחר מכן, לחץ כדי לראות את תוכן ואת תחזיות מזג האוויר.

כדי לשנות את המפה: לחץ על הכפתורים הירוקים עם הפלוס השחור כדי להתקרב; על הכפתור הירוק עם המקף כדי להתרחק; או בחיצים הירוקים למפות סמוכות.


METAR-TAF: